Search for airport 
image banner adimage banner adimage banner ad
image banner ad

DTTJ - Djerba/Zarzis

Located in Djerba, Tunisia

ICAO - DTTJ, IATA - DJE

Data provided by Airmate  

General information

Coordinates: N33°52'32" E10°46'38"
Elevation is 19 feet MSL.
 
Rated:
View ratings:
[VIEW]
View others Airports in Medenine Governorate

Operational data

Special qualification required
Current time UTC:
Current local time:
Weather
METAR: DTTJ 260830Z 11007KT 8000 NSC 30/23 Q1019 NOSIG
TAF: TAF DTTJ 260500Z 2606/2706 09008KT 8000 FEW026
View NOTAMs / SUP AIP / TFR affecting this airport [VIEW]
Communications frequencies: [VIEW]

Runways:

RWY identifierQFULength (ft)Width (ft)SurfaceLDA (ft)
0988°10210148ASP
27268°10210148

Airport contact information

Address: Djerba Tunisia

Satellite view of DTTJ